Time;durP1;ratioP1;P1;durP2;ratioP2;P2;SDS_P1;SDS_P2;PMS_P1;PMS_P2;Temp;Humidity;BMP_temperature;BMP_pressure;BME280_temperature;BME280_humidity;BME280_pressure;Samples;Min_cycle;Max_cycle;Signal;HPM_P1;HPM_P2
2021/03/24 00:00:45;;;;;;;13.88;5.57;;;;;;;4.17;70.98;98955.47;5020341;28;45298;-82
2021/03/24 00:03:12;;;;;;;9.82;4.60;;;;;;;4.09;71.62;98953.34;5020485;28;45318;-81
2021/03/24 00:05:42;;;;;;;9.48;5.63;;;;;;;4.08;71.81;98949.03;5022339;28;45159;-82
2021/03/24 00:08:08;;;;;;;10.00;4.70;;;;;;;4.05;71.96;98954.47;5020034;28;45461;-82
2021/03/24 00:10:35;;;;;;;6.65;4.22;;;;;;;4.19;71.31;98961.47;5020050;28;45382;-82
2021/03/24 00:13:02;;;;;;;9.13;4.25;;;;;;;4.29;70.08;98955.63;5020116;28;45294;-81
2021/03/24 00:15:27;;;;;;;9.77;5.30;;;;;;;4.02;72.43;98959.09;5020529;28;45294;-82
2021/03/24 00:17:54;;;;;;;10.25;4.65;;;;;;;3.96;71.83;98968.19;5019887;28;46214;-81
2021/03/24 00:20:24;;;;;;;10.43;4.68;;;;;;;3.76;73.04;98959.75;5020271;28;45239;-82
2021/03/24 00:22:49;;;;;;;11.52;5.00;;;;;;;3.67;73.38;98962.13;5002062;28;45414;-81
2021/03/24 00:25:16;;;;;;;9.43;4.90;;;;;;;3.61;73.20;98961.56;5020036;28;45540;-81
2021/03/24 00:27:43;;;;;;;9.38;4.75;;;;;;;3.72;72.60;98960.91;5019692;28;45271;-81
2021/03/24 00:30:09;;;;;;;9.98;4.28;;;;;;;3.76;71.94;98967.66;5020109;28;45215;-81
2021/03/24 00:32:35;;;;;;;10.85;4.90;;;;;;;3.71;73.28;98964.47;5001945;28;45295;-81
2021/03/24 00:35:01;;;;;;;9.13;4.85;;;;;;;3.88;72.71;98955.53;5023626;28;45496;-81
2021/03/24 00:37:26;;;;;;;10.32;5.38;;;;;;;3.79;72.92;98964.00;5022225;28;45846;-81
2021/03/24 00:39:51;;;;;;;10.25;5.07;;;;;;;3.89;72.69;98954.59;5020007;28;45327;-81
2021/03/24 00:42:17;;;;;;;10.02;5.40;;;;;;;3.90;72.73;98965.94;5019551;28;45414;-81
2021/03/24 00:44:42;;;;;;;12.50;5.38;;;;;;;3.80;73.97;98960.44;5019893;28;45316;-82
2021/03/24 00:47:08;;;;;;;11.55;5.20;;;;;;;3.68;73.91;98958.56;5001489;28;46976;-82
2021/03/24 00:49:33;;;;;;;9.77;5.05;;;;;;;3.61;73.98;98958.09;5019830;28;45294;-82
2021/03/24 00:51:58;;;;;;;11.60;5.25;;;;;;;3.50;74.64;98959.59;5019551;28;45405;-82
2021/03/24 00:54:24;;;;;;;10.80;5.22;;;;;;;3.63;74.91;98959.69;4997511;28;45653;-82
2021/03/24 00:56:49;;;;;;;13.32;5.40;;;;;;;3.58;74.75;98953.88;5006119;28;45938;-81
2021/03/24 00:59:15;;;;;;;11.82;5.50;;;;;;;3.60;74.42;98956.41;4998492;28;45355;-81
2021/03/24 01:01:41;;;;;;;10.70;5.03;;;;;;;3.65;74.46;98956.97;5014708;28;45259;-81
2021/03/24 01:04:08;;;;;;;8.95;4.68;;;;;;;3.64;74.13;98958.75;5019572;28;45462;-81
2021/03/24 01:06:35;;;;;;;8.77;4.88;;;;;;;3.66;74.07;98953.38;5022642;28;46219;-81
2021/03/24 01:09:00;;;;;;;9.07;4.82;;;;;;;3.55;75.19;98959.31;5019159;28;45426;-81
2021/03/24 01:11:26;;;;;;;10.90;4.93;;;;;;;3.58;74.60;98958.28;5000654;28;45248;-81
2021/03/24 01:13:51;;;;;;;11.07;5.03;;;;;;;3.50;75.27;98956.97;5019429;28;45415;-81
2021/03/24 01:16:17;;;;;;;12.93;5.50;;;;;;;3.48;74.47;98958.84;5019215;28;45323;-81
2021/03/24 01:18:42;;;;;;;9.30;5.22;;;;;;;3.39;76.19;98956.78;5019186;28;45386;-81
2021/03/24 01:21:08;;;;;;;11.95;5.05;;;;;;;3.38;75.41;98959.47;5019288;28;45507;-81
2021/03/24 01:23:33;;;;;;;11.23;5.45;;;;;;;3.29;76.78;98953.84;5019270;28;45523;-81
2021/03/24 01:25:59;;;;;;;11.07;5.45;;;;;;;3.33;76.65;98960.59;5017289;28;46434;-81
2021/03/24 01:28:28;;;;;;;7.95;5.32;;;;;;;3.32;77.07;98965.97;5008695;28;45325;-81
2021/03/24 01:30:58;;;;;;;11.43;5.28;;;;;;;3.29;77.11;98964.34;5019015;28;45223;-81
2021/03/24 01:33:24;;;;;;;14.57;5.28;;;;;;;3.29;77.46;98961.72;5019046;28;45535;-81
2021/03/24 01:35:49;;;;;;;11.75;5.15;;;;;;;3.26;76.80;98953.19;5027515;28;45636;-82
2021/03/24 01:38:15;;;;;;;11.25;5.13;;;;;;;3.23;76.98;98951.59;5018933;28;45402;-82
2021/03/24 01:40:44;;;;;;;13.43;6.10;;;;;;;3.05;77.78;98950.88;5018754;28;45315;-82
2021/03/24 01:43:28;;;;;;;9.82;4.95;;;;;;;3.18;76.24;98951.00;5018902;28;45502;-82
2021/03/24 01:46:27;;;;;;;9.20;5.30;;;;;;;3.17;76.78;98939.66;5006078;28;46209;-82
2021/03/24 01:48:56;;;;;;;10.77;5.15;;;;;;;3.05;77.67;98935.13;4982479;28;45484;-83
2021/03/24 01:51:27;;;;;;;13.63;5.38;;;;;;;2.99;77.69;98935.50;5011264;28;45269;-82
2021/03/24 01:53:55;;;;;;;10.40;5.55;;;;;;;3.03;77.63;98923.84;5018773;28;45691;-82
2021/03/24 01:56:21;;;;;;;9.70;4.65;;;;;;;3.16;76.39;98932.72;5008157;28;45406;-82
2021/03/24 01:58:47;;;;;;;9.80;4.20;;;;;;;3.15;75.73;98927.53;5018439;28;45374;-82
2021/03/24 02:01:16;;;;;;;12.15;4.15;;;;;;;3.22;75.90;98926.22;5018893;28;45259;-82
2021/03/24 02:03:42;;;;;;;8.98;4.95;;;;;;;3.30;76.25;98923.16;5018198;28;45546;-81
2021/03/24 02:06:22;;;;;;;12.52;4.93;;;;;;;3.28;76.46;98933.75;5023573;28;45507;-82
2021/03/24 02:09:00;;;;;;;10.93;4.82;;;;;;;3.39;75.66;98929.63;5004727;28;45264;-82
2021/03/24 02:11:41;;;;;;;11.48;4.95;;;;;;;3.32;75.93;98923.91;5018215;28;45425;-82
2021/03/24 02:14:20;;;;;;;10.55;4.85;;;;;;;3.21;76.04;98925.41;5018454;28;45200;-82
2021/03/24 02:16:49;;;;;;;11.73;5.10;;;;;;;3.18;76.45;98924.72;5018207;28;47609;-82
2021/03/24 02:20:03;;;;;;;11.57;4.72;;;;;;;3.16;75.98;98922.22;5018079;28;45429;-82
2021/03/24 02:22:36;;;;;;;12.40;5.00;;;;;;;3.07;76.71;98922.72;4957241;28;45474;-82
2021/03/24 02:25:12;;;;;;;11.75;5.18;;;;;;;2.95;77.69;98923.47;4993602;28;45522;-82
2021/03/24 02:27:47;;;;;;;8.52;4.30;;;;;;;2.87;77.11;98918.69;5017916;28;46267;-82
2021/03/24 02:30:34;;;;;;;10.20;4.25;;;;;;;2.89;77.44;98917.66;5019136;28;45527;-82
2021/03/24 02:33:05;;;;;;;9.07;4.60;;;;;;;2.77;77.59;98915.75;5005590;28;45363;-80
2021/03/24 02:35:35;;;;;;;11.77;5.30;;;;;;;2.98;77.61;98916.25;5017699;28;45443;-81
2021/03/24 02:38:04;;;;;;;12.20;5.00;;;;;;;2.89;78.35;98916.81;5017845;28;45933;-81
2021/03/24 02:40:31;;;;;;;11.97;4.83;;;;;;;2.76;78.38;98914.91;5017588;28;45371;-81
2021/03/24 02:42:58;;;;;;;11.75;4.90;;;;;;;2.88;78.28;98918.56;5018015;28;45307;-81
2021/03/24 02:45:27;;;;;;;9.02;5.32;;;;;;;2.85;78.29;98913.50;5000006;28;45643;-81
2021/03/24 02:47:58;;;;;;;10.60;4.55;;;;;;;3.06;76.62;98921.91;5017532;28;46084;-81
2021/03/24 02:50:25;;;;;;;10.45;4.82;;;;;;;2.92;77.42;98914.00;5017702;28;45499;-81
2021/03/24 02:52:51;;;;;;;10.10;4.45;;;;;;;3.12;76.11;98919.84;5017880;28;45421;-80
2021/03/24 02:55:19;;;;;;;8.93;5.13;;;;;;;3.38;74.80;98912.16;4997111;28;45607;-81
2021/03/24 02:57:45;;;;;;;9.75;5.10;;;;;;;3.21;75.72;98920.16;5010374;28;45989;-80
2021/03/24 03:00:15;;;;;;;8.63;5.00;;;;;;;3.15;75.53;98922.28;5017426;28;45517;-81
2021/03/24 03:02:45;;;;;;;14.67;6.37;;;;;;;3.12;75.00;98925.97;4999956;28;45359;-80
2021/03/24 03:05:13;;;;;;;;;;;;;;;2.98;75.69;98924.16;5000206;28;45277;-81
2021/03/24 03:07:43;;;;;;;13.20;6.38;;;;;;;2.67;77.53;98925.09;5017526;28;45346;-81
2021/03/24 03:10:15;;;;;;;;;;;;;;;2.43;78.62;98928.22;4999856;28;45349;-80
2021/03/24 03:12:54;;;;;;;11.20;5.70;;;;;;;2.47;79.31;98934.97;5017838;28;45376;-81
2021/03/24 03:15:31;;;;;;;9.57;4.93;;;;;;;2.58;78.48;98926.47;5005805;28;45201;-81
2021/03/24 03:18:06;;;;;;;9.18;4.70;;;;;;;2.54;78.68;98917.06;5019630;28;46393;-81
2021/03/24 03:20:35;;;;;;;9.38;4.68;;;;;;;2.47;79.52;98921.84;5021269;28;45274;-80
2021/03/24 03:23:13;;;;;;;10.27;5.30;;;;;;;2.48;79.20;98918.28;5020919;28;45363;-80
2021/03/24 03:25:42;;;;;;;12.57;4.88;;;;;;;2.58;78.54;98924.69;5020957;28;45228;-80
2021/03/24 03:28:10;;;;;;;11.10;5.20;;;;;;;2.53;78.81;98936.38;5019765;28;46152;-80
2021/03/24 03:30:39;;;;;;;10.43;4.82;;;;;;;2.51;78.11;98936.50;5020455;28;45354;-80
2021/03/24 03:33:08;;;;;;;10.38;5.00;;;;;;;2.73;77.21;98930.00;5020813;28;45302;-80
2021/03/24 03:35:36;;;;;;;11.45;5.18;;;;;;;2.56;78.79;98942.31;5020702;28;45444;-80
2021/03/24 03:38:03;;;;;;;11.55;6.28;;;;;;;2.57;78.49;98938.78;5003018;28;48027;-80
2021/03/24 03:40:34;;;;;;;13.45;5.47;;;;;;;2.50;79.24;98939.19;5020527;28;45311;-81
2021/03/24 03:43:03;;;;;;;12.98;6.03;;;;;;;2.48;78.56;98942.75;5021123;28;45342;-81
2021/03/24 03:45:29;;;;;;;13.18;6.78;;;;;;;2.33;79.28;98949.75;5020625;28;45648;-81
2021/03/24 03:47:54;;;;;;;17.05;9.00;;;;;;;2.33;79.00;98944.50;5020547;28;45299;-81
2021/03/24 03:50:24;;;;;;;16.40;8.95;;;;;;;2.02;80.31;98942.72;5020445;28;45234;-81
2021/03/24 03:53:50;;;;;;;14.57;8.23;;;;;;;2.01;80.02;98947.13;5020854;28;45310;-81
2021/03/24 03:56:21;;;;;;;12.35;6.40;;;;;;;2.38;78.49;98943.38;4951584;28;45405;-81
2021/03/24 03:59:23;;;;;;;10.75;5.57;;;;;;;2.18;79.15;98933.06;5018293;28;46045;-81
2021/03/24 04:01:58;;;;;;;11.98;6.03;;;;;;;1.95;80.77;98934.34;5014264;28;45455;-80
2021/03/24 04:04:40;;;;;;;12.60;6.40;;;;;;;1.91;80.92;98932.81;5020775;28;45445;-80
2021/03/24 04:07:13;;;;;;;9.20;4.85;;;;;;;2.00;81.03;98931.47;5020231;28;45342;-81
2021/03/24 04:09:40;;;;;;;9.50;4.72;;;;;;;1.81;81.35;98923.75;5020226;28;45576;-80
2021/03/24 04:12:12;;;;;;;10.52;5.40;;;;;;;1.92;80.76;98921.38;5002248;28;45371;-80
2021/03/24 04:14:39;;;;;;;9.43;5.32;;;;;;;1.87;81.69;98926.91;5020410;28;45502;-80
2021/03/24 04:17:11;;;;;;;10.00;5.20;;;;;;;1.86;81.30;98921.72;5020265;28;45287;-81
2021/03/24 04:19:44;;;;;;;10.43;5.18;;;;;;;2.00;81.65;98920.97;5020107;28;46165;-81
2021/03/24 04:22:13;;;;;;;7.57;4.60;;;;;;;1.90;81.63;98931.13;5020394;28;45281;-81
2021/03/24 04:24:47;;;;;;;10.98;4.90;;;;;;;1.85;82.33;98922.66;5020143;28;45360;-81
2021/03/24 04:27:15;;;;;;;9.88;4.57;;;;;;;1.88;82.33;98927.75;5020178;28;45330;-80
2021/03/24 04:29:48;;;;;;;9.30;5.10;;;;;;;1.83;82.72;98933.25;5001978;28;47237;-82
2021/03/24 04:32:15;;;;;;;10.27;4.70;;;;;;;1.78;82.69;98930.03;5004725;28;45716;-82
2021/03/24 04:34:41;;;;;;;12.80;5.22;;;;;;;1.79;82.67;98933.50;5020160;28;45442;-81
2021/03/24 04:37:20;;;;;;;9.82;4.63;;;;;;;1.78;82.55;98937.91;5019933;28;45167;-82
2021/03/24 04:39:54;;;;;;;11.98;5.38;;;;;;;1.99;81.33;98943.72;5019354;28;45981;-82
2021/03/24 04:42:29;;;;;;;12.38;4.53;;;;;;;2.04;80.62;98946.94;5019925;28;45189;-82
2021/03/24 04:44:56;;;;;;;14.50;5.18;;;;;;;1.74;82.08;98944.22;5019815;28;45296;-82
2021/03/24 04:47:31;;;;;;;11.13;5.15;;;;;;;2.29;79.94;98948.22;5019605;28;45319;-82
2021/03/24 04:50:01;;;;;;;13.10;5.15;;;;;;;2.26;80.12;98945.78;5019340;28;46306;-81
2021/03/24 04:52:30;;;;;;;10.30;5.10;;;;;;;1.82;81.97;98951.69;4996989;28;45458;-81
2021/03/24 04:55:02;;;;;;;12.25;5.70;;;;;;;1.81;81.64;98956.09;4988727;28;45469;-81
2021/03/24 04:57:28;;;;;;;11.07;5.68;;;;;;;2.01;80.76;98952.38;5013455;28;45457;-82
2021/03/24 05:00:03;;;;;;;12.05;5.30;;;;;;;1.79;82.26;98950.09;5019206;28;46235;-81
2021/03/24 05:02:33;;;;;;;14.38;6.72;;;;;;;1.74;82.30;98952.94;5019377;28;45291;-81
2021/03/24 05:05:18;;;;;;;9.35;5.70;;;;;;;1.81;82.40;98957.84;5018952;28;45331;-81
2021/03/24 05:07:59;;;;;;;12.27;5.68;;;;;;;1.81;82.28;98963.09;5012778;28;45280;-80
2021/03/24 05:10:28;;;;;;;12.00;5.50;;;;;;;1.73;82.50;98969.59;5018651;28;46327;-80
2021/03/24 05:13:07;;;;;;;12.52;6.32;;;;;;;1.66;82.37;98964.75;5019420;28;45358;-81
2021/03/24 05:15:40;;;;;;;17.85;9.57;;;;;;;1.66;83.56;98967.38;5019523;28;45232;-81
2021/03/24 05:18:07;;;;;;;15.55;5.78;;;;;;;1.64;83.87;98961.38;5001513;28;45528;-81
2021/03/24 05:20:39;;;;;;;11.02;5.55;;;;;;;1.58;83.81;98963.41;5018927;28;45258;-81
2021/03/24 05:23:11;;;;;;;12.88;5.75;;;;;;;1.78;82.48;98973.75;5001309;28;45440;-80
2021/03/24 05:25:44;;;;;;;7.85;4.78;;;;;;;1.72;83.10;98965.28;5001198;28;45348;-81
2021/03/24 05:28:18;;;;;;;9.75;4.65;;;;;;;1.73;82.46;98972.22;5018750;28;45381;-80
2021/03/24 05:30:59;;;;;;;9.68;4.55;;;;;;;1.73;82.45;98967.00;5001146;28;48179;-80
2021/03/24 05:33:26;;;;;;;;;;;;;;;1.72;82.76;98962.66;5006398;28;45409;-80
2021/03/24 05:35:57;;;;;;;10.15;4.55;;;;;;;1.79;82.66;98951.84;5018433;28;45357;-80
2021/03/24 05:38:35;;;;;;;13.70;4.85;;;;;;;1.65;83.29;98957.81;5015136;28;45663;-80
2021/03/24 05:41:24;;;;;;;8.73;5.22;;;;;;;1.44;84.03;98956.28;4998930;28;48107;-81
2021/03/24 05:43:58;;;;;;;12.40;6.30;;;;;;;1.64;83.33;98969.25;5018733;28;45181;-80
2021/03/24 05:46:35;;;;;;;9.77;4.90;;;;;;;1.71;83.29;98966.22;5006026;28;45307;-80
2021/03/24 05:49:38;;;;;;;11.57;4.93;;;;;;;1.84;83.22;98969.03;5018709;28;45284;-80
2021/03/24 05:52:36;;;;;;;13.30;5.47;;;;;;;1.80;83.71;98967.53;4986926;28;45796;-81
2021/03/24 05:55:35;;;;;;;15.40;5.55;;;;;;;1.79;83.72;98965.81;5018128;28;45505;-80
2021/03/24 05:58:23;;;;;;;11.57;4.95;;;;;;;1.99;81.91;98969.97;5017482;28;45333;-81
2021/03/24 06:00:58;;;;;;;10.90;5.07;;;;;;;2.02;82.65;98974.22;5018176;28;45267;-81
2021/03/24 06:03:49;;;;;;;8.82;5.03;;;;;;;1.94;82.69;98976.41;5016144;28;45484;-81
2021/03/24 06:06:33;;;;;;;11.50;5.13;;;;;;;2.12;82.35;98980.66;5013617;28;46033;-81
2021/03/24 06:09:23;;;;;;;11.73;4.70;;;;;;;2.16;81.98;98986.56;5021681;28;45367;-81
2021/03/24 06:11:58;;;;;;;12.13;5.72;;;;;;;2.30;81.32;98981.41;5014278;28;45677;-80
2021/03/24 06:14:41;;;;;;;9.73;5.30;;;;;;;2.33;80.64;98990.88;5017049;28;45293;-86
2021/03/24 06:17:10;;;;;;;10.13;5.35;;;;;;;2.19;81.55;98994.25;5001547;28;45344;-79
2021/03/24 06:19:48;;;;;;;11.13;6.25;;;;;;;1.91;82.84;98982.66;5013497;28;45430;-79
2021/03/24 06:22:59;;;;;;;14.25;7.43;;;;;;;1.94;82.24;98989.53;5014780;28;45746;-79
2021/03/24 06:25:53;;;;;;;14.48;9.27;;;;;;;2.08;81.37;98994.88;4980570;28;46144;-81
2021/03/24 06:29:11;;;;;;;17.77;10.35;;;;;;;2.08;81.02;98994.00;4969977;28;45625;-81
2021/03/24 06:31:56;;;;;;;13.77;8.63;;;;;;;2.12;80.83;99006.03;4965980;28;45352;-79
2021/03/24 06:34:24;;;;;;;9.43;5.40;;;;;;;2.41;80.30;99001.81;4992294;28;45423;-84
2021/03/24 06:37:07;;;;;;;9.07;5.47;;;;;;;2.21;82.01;99008.19;5016411;28;45500;-84
2021/03/24 06:39:42;;;;;;;11.68;5.63;;;;;;;2.25;81.74;99003.59;5021683;28;45441;-84
2021/03/24 06:42:34;;;;;;;12.60;6.45;;;;;;;2.40;81.62;99002.72;5003335;28;45389;-84
2021/03/24 06:45:22;;;;;;;16.20;8.10;;;;;;;2.37;81.96;98996.81;5012710;28;45283;-85
2021/03/24 06:48:21;;;;;;;18.75;9.50;;;;;;;2.45;81.63;98999.88;5004371;28;47200;-85
2021/03/24 06:51:02;;;;;;;12.52;6.28;;;;;;;2.41;82.08;98996.56;5004046;28;45808;-85
2021/03/24 06:53:33;;;;;;;16.10;7.80;;;;;;;2.48;81.27;99005.78;5008967;28;45386;-81
2021/03/24 06:56:16;;;;;;;14.10;7.50;;;;;;;2.45;80.34;99013.81;4995544;28;45499;-83
2021/03/24 06:59:09;;;;;;;13.50;7.22;;;;;;;2.41;80.33;99011.47;5014959;28;46356;-84
2021/03/24 07:02:01;;;;;;;16.65;8.05;;;;;;;2.35;81.86;99007.41;5018559;28;45481;-84
2021/03/24 07:04:55;;;;;;;15.13;7.78;;;;;;;2.27;81.65;99004.34;5007476;28;45386;-81
2021/03/24 07:07:39;;;;;;;19.17;7.97;;;;;;;2.29;81.28;99005.13;5015822;28;45557;-83
2021/03/24 07:10:07;;;;;;;17.42;7.85;;;;;;;2.29;81.32;99005.13;5016751;28;45270;-81
2021/03/24 07:13:04;;;;;;;17.40;8.63;;;;;;;2.24;82.09;99010.63;5021118;28;45302;-82
2021/03/24 07:15:40;;;;;;;13.52;8.00;;;;;;;2.37;81.17;99015.19;5027768;28;45365;-82
2021/03/24 07:18:34;;;;;;;19.55;8.82;;;;;;;2.30;81.54;99012.06;5013051;28;45628;-82
2021/03/24 07:21:32;;;;;;;17.55;8.50;;;;;;;2.30;82.32;99017.31;5014002;28;46124;-80
2021/03/24 07:24:25;;;;;;;14.57;8.43;;;;;;;2.28;82.68;99013.91;5027450;28;45451;-79
2021/03/24 07:26:56;;;;;;;23.65;11.18;;;;;;;2.36;81.87;99027.47;5014638;28;45389;-80
2021/03/24 07:29:43;;;;;;;26.50;15.20;;;;;;;2.32;81.65;99024.19;5022547;28;45699;-79
2021/03/24 07:32:21;;;;;;;18.08;9.70;;;;;;;2.37;82.13;99018.66;5016921;28;46488;-79
2021/03/24 07:35:26;;;;;;;13.48;5.72;;;;;;;2.50;82.61;99018.84;5026643;28;45420;-80
2021/03/24 07:38:19;;;;;;;13.48;8.68;;;;;;;2.60;82.01;99020.00;5009939;28;45580;-80
2021/03/24 07:41:05;;;;;;;23.38;10.38;;;;;;;2.61;81.90;99029.56;5003550;28;45563;-79
2021/03/24 07:44:04;;;;;;;16.02;9.73;;;;;;;2.61;82.21;99028.72;5015224;28;45424;-78
2021/03/24 07:47:00;;;;;;;22.67;10.52;;;;;;;2.59;81.53;99026.19;5016486;28;45253;-79
2021/03/24 07:49:49;;;;;;;33.33;14.00;;;;;;;2.86;80.11;99028.16;5015222;28;45186;-80
2021/03/24 07:52:29;;;;;;;33.53;16.67;;;;;;;2.77;81.75;99031.34;5002641;28;46115;-81
2021/03/24 07:55:15;;;;;;;29.08;19.00;;;;;;;2.92;80.36;99017.31;5016572;28;46340;-81
2021/03/24 07:57:49;;;;;;;27.05;15.57;;;;;;;2.95;81.27;99013.66;5014422;28;45468;-81
2021/03/24 08:00:24;;;;;;;18.15;11.35;;;;;;;2.90;81.71;99023.59;5002926;28;45510;-80
2021/03/24 08:03:21;;;;;;;12.27;6.40;;;;;;;2.96;82.00;99025.00;5014063;28;45662;-80
2021/03/24 08:05:56;;;;;;;11.75;5.82;;;;;;;3.09;80.85;99026.00;5017429;28;45426;-81
2021/03/24 08:08:55;;;;;;;12.10;5.95;;;;;;;3.20;81.00;99014.88;5014700;28;45607;-81
2021/03/24 08:11:41;;;;;;;11.35;5.70;;;;;;;3.24;81.09;99016.38;5023944;28;45479;-81
2021/03/24 08:14:19;;;;;;;10.45;5.50;;;;;;;3.22;81.83;99015.63;5019408;28;45445;-80
2021/03/24 08:16:50;;;;;;;13.15;5.80;;;;;;;3.36;81.12;99020.06;5018287;28;45440;-81
2021/03/24 08:19:18;;;;;;;12.82;5.43;;;;;;;3.53;79.95;99018.22;5025058;28;45433;-79
2021/03/24 08:22:21;;;;;;;10.20;5.22;;;;;;;4.05;78.25;99009.75;5019037;28;45840;-80
2021/03/24 08:25:06;;;;;;;8.57;4.93;;;;;;;4.88;74.98;99013.28;5018411;28;45309;-81
2021/03/24 08:27:40;;;;;;;12.13;5.55;;;;;;;5.07;73.57;99009.44;5017592;28;45425;-82
2021/03/24 08:30:15;;;;;;;12.25;6.70;;;;;;;4.61;75.03;99013.31;5018985;28;45424;-80
2021/03/24 08:32:55;;;;;;;11.98;7.88;;;;;;;4.48;75.44;99007.97;5019342;28;45588;-82
2021/03/24 08:35:51;;;;;;;14.50;7.20;;;;;;;4.58;76.00;99011.69;5010998;28;45327;-82
2021/03/24 08:38:35;;;;;;;13.65;7.60;;;;;;;4.66;75.98;99009.41;5026978;28;45734;-81
2021/03/24 08:41:42;;;;;;;13.50;8.10;;;;;;;4.84;75.42;99005.69;5013962;28;45295;-82
2021/03/24 08:44:29;;;;;;;16.45;7.65;;;;;;;5.57;73.38;99008.72;5010206;28;45409;-83
2021/03/24 08:47:13;;;;;;;17.15;7.50;;;;;;;6.02;71.71;99006.53;5021417;28;45472;-80
2021/03/24 08:49:46;;;;;;;16.27;7.90;;;;;;;7.06;67.11;99008.78;5013265;28;47449;-81
2021/03/24 08:52:30;;;;;;;12.93;7.35;;;;;;;8.39;60.90;99006.44;5012055;28;45429;-82
2021/03/24 08:55:27;;;;;;;13.93;6.88;;;;;;;10.03;56.11;99004.44;5017850;28;45522;-82
2021/03/24 08:58:12;;;;;;;14.27;6.95;;;;;;;11.33;51.01;99008.00;5018350;28;45495;-84
2021/03/24 09:00:58;;;;;;;11.13;6.25;;;;;;;14.51;46.99;99010.69;5014907;28;45519;-83
2021/03/24 09:03:53;;;;;;;15.77;7.30;;;;;;;15.89;41.33;98998.50;5031410;28;45460;-81
2021/03/24 09:06:50;;;;;;;9.55;6.10;;;;;;;16.17;40.13;99006.13;5015508;28;45425;-83
2021/03/24 09:09:43;;;;;;;11.23;5.93;;;;;;;17.06;38.82;99002.28;5018528;28;45726;-83
2021/03/24 09:12:09;;;;;;;10.10;5.45;;;;;;;17.19;36.58;98999.84;5022098;28;45656;-85
2021/03/24 09:14:42;;;;;;;11.93;5.85;;;;;;;16.95;37.68;99002.69;5016645;28;45498;-85
2021/03/24 09:17:29;;;;;;;10.73;6.13;;;;;;;17.09;34.34;98999.25;5014192;28;45530;-85
2021/03/24 09:20:23;;;;;;;11.85;5.93;;;;;;;16.76;37.91;98994.91;5008855;28;45781;-85
2021/03/24 09:23:13;;;;;;;9.77;5.85;;;;;;;16.36;35.94;98991.47;5019938;28;45608;-84
2021/03/24 09:26:09;;;;;;;10.37;5.93;;;;;;;16.50;36.02;98989.88;5018555;28;45499;-85
2021/03/24 09:28:59;;;;;;;10.90;6.25;;;;;;;15.96;37.16;98987.94;5013276;28;45568;-85
2021/03/24 09:32:01;;;;;;;10.77;6.33;;;;;;;15.14;38.43;98989.72;5012479;28;45842;-85
2021/03/24 09:34:54;;;;;;;10.63;5.38;;;;;;;14.39;37.80;98986.03;5015796;28;46377;-87
2021/03/24 09:37:30;;;;;;;13.13;6.18;;;;;;;14.21;38.46;98983.50;5015578;28;45920;-83
2021/03/24 09:40:00;;;;;;;11.32;5.88;;;;;;;14.31;39.40;98986.88;5014476;28;45532;-83
2021/03/24 09:42:39;;;;;;;10.18;5.15;;;;;;;14.39;39.98;98980.69;5022497;28;45547;-84
2021/03/24 09:45:28;;;;;;;9.23;5.20;;;;;;;14.17;40.63;98982.16;5017491;28;45527;-82
2021/03/24 09:48:09;;;;;;;8.70;4.88;;;;;;;13.88;38.17;98986.88;5020362;28;45613;-83
2021/03/24 09:50:47;;;;;;;9.57;5.22;;;;;;;13.93;38.97;98989.91;5022159;28;45315;-83
2021/03/24 09:53:26;;;;;;;9.40;4.82;;;;;;;14.34;38.30;98985.69;5005875;28;45444;-83
2021/03/24 09:55:54;;;;;;;7.55;4.57;;;;;;;14.18;38.21;98978.47;5019660;28;45406;-84
2021/03/24 09:58:27;;;;;;;9.07;4.28;;;;;;;14.69;39.82;98975.75;5021061;28;45212;-84
2021/03/24 10:01:32;;;;;;;8.02;4.28;;;;;;;14.65;39.07;98969.06;5021411;28;45472;-83
2021/03/24 10:04:16;;;;;;;7.65;4.65;;;;;;;14.46;38.39;98968.34;4990223;28;45510;-83
2021/03/24 10:06:48;;;;;;;8.38;4.60;;;;;;;14.45;40.20;98959.47;5016932;28;46293;-84
2021/03/24 10:09:36;;;;;;;9.15;4.72;;;;;;;14.48;41.67;98957.47;5013767;28;45610;-83
2021/03/24 10:12:08;;;;;;;8.52;4.85;;;;;;;14.46;38.44;98954.97;5002035;28;45474;-84
2021/03/24 10:14:44;;;;;;;7.82;4.15;;;;;;;14.22;37.71;98951.22;5013851;28;45500;-83
2021/03/24 10:17:21;;;;;;;7.93;4.80;;;;;;;14.06;38.85;98941.28;5010755;28;46089;-80
2021/03/24 10:19:55;;;;;;;15.18;8.52;;;;;;;14.31;40.56;98944.06;5018699;28;45527;-83
2021/03/24 10:22:24;;;;;;;11.80;5.25;;;;;;;14.21;39.15;98935.34;5024370;28;45287;-85
2021/03/24 10:25:09;;;;;;;12.27;4.88;;;;;;;14.64;38.36;98928.06;5023375;28;45488;-84
2021/03/24 10:27:36;;;;;;;10.38;5.28;;;;;;;14.51;39.08;98933.88;5020031;28;45482;-83
2021/03/24 10:41:37;;;;;;;8.57;5.15;;;;;;;13.76;39.13;98906.09;5073987;28;45481;-86
2021/03/24 10:44:19;;;;;;;12.23;4.53;;;;;;;13.90;39.63;98901.13;5039609;28;45367;-80
2021/03/24 10:47:42;;;;;;;13.05;5.63;;;;;;;14.07;39.42;98902.03;5048872;28;45456;-86
2021/03/24 10:50:28;;;;;;;9.13;4.78;;;;;;;13.85;40.21;98898.97;5035029;28;45416;-83
2021/03/24 10:53:02;;;;;;;11.05;5.38;;;;;;;13.91;39.23;98900.13;5031802;28;46613;-83
2021/03/24 10:55:30;;;;;;;9.05;5.80;;;;;;;13.63;38.40;98890.50;5034802;28;45938;-85
2021/03/24 10:58:04;;;;;;;15.50;5.80;;;;;;;13.86;41.79;98888.09;5052456;28;45529;-87
2021/03/24 11:00:59;;;;;;;9.25;4.90;;;;;;;14.13;40.89;98883.47;5053129;28;45635;-85
2021/03/24 11:03:48;;;;;;;7.90;5.10;;;;;;;14.20;41.80;98886.34;5052085;28;46095;-86
2021/03/24 11:06:35;;;;;;;10.82;5.32;;;;;;;14.28;40.87;98878.34;5031256;28;45752;-88
2021/03/24 11:09:15;;;;;;;9.43;5.00;;;;;;;14.34;42.02;98876.00;5052059;28;45334;-86
2021/03/24 11:11:53;;;;;;;6.72;4.35;;;;;;;14.18;39.06;98874.16;5049557;28;45645;-84
2021/03/24 11:14:55;;;;;;;8.02;4.60;;;;;;;14.12;40.50;98863.09;5049547;28;45701;-82
2021/03/24 11:17:26;;;;;;;8.40;4.80;;;;;;;14.01;41.96;98860.72;5054189;28;45491;-83
2021/03/24 11:20:19;;;;;;;9.75;5.10;;;;;;;14.06;41.37;98863.75;5052494;28;45405;-84
2021/03/24 11:23:02;;;;;;;9.88;5.05;;;;;;;14.09;42.81;98857.25;5041351;28;45638;-84
2021/03/24 11:25:37;;;;;;;9.00;5.78;;;;;;;13.89;41.36;98860.22;5047512;28;45382;-83
2021/03/24 11:28:36;;;;;;;9.02;5.45;;;;;;;13.78;40.38;98852.50;5047562;28;45479;-86
2021/03/24 11:31:18;;;;;;;9.45;5.03;;;;;;;13.73;40.14;98850.28;5052409;28;45419;-85
2021/03/24 11:33:55;;;;;;;10.88;6.00;;;;;;;13.60;41.18;98847.25;5052208;28;45243;-82
2021/03/24 11:36:27;;;;;;;9.60;5.57;;;;;;;13.72;42.61;98851.28;5051442;28;46336;-84
2021/03/24 11:39:06;;;;;;;9.02;5.70;;;;;;;13.88;41.47;98842.50;5052919;28;45401;-83
2021/03/24 11:41:39;;;;;;;11.38;5.72;;;;;;;14.07;44.50;98843.19;5050161;28;45629;-81
2021/03/24 11:44:12;;;;;;;9.45;5.75;;;;;;;14.08;42.21;98839.53;5042120;28;45263;-91
2021/03/24 11:46:40;;;;;;;9.50;5.78;;;;;;;14.08;41.29;98839.53;5042262;28;46069;-87
2021/03/24 11:49:23;;;;;;;10.20;5.30;;;;;;;13.89;40.02;98833.47;5046507;28;46176;-85
2021/03/24 11:52:23;;;;;;;7.45;4.93;;;;;;;13.91;40.76;98823.47;5037459;28;45391;-87
2021/03/24 11:54:48;;;;;;;9.45;6.07;;;;;;;14.07;42.14;98827.16;5037101;28;45537;-86
2021/03/24 11:57:38;;;;;;;11.38;5.85;;;;;;;13.85;40.24;98816.09;5037545;28;46010;-87
2021/03/24 12:00:09;;;;;;;12.43;6.32;;;;;;;14.00;41.88;98816.28;5037502;28;45578;-89
2021/03/24 12:03:12;;;;;;;9.07;5.10;;;;;;;14.11;40.45;98812.47;5039222;28;45808;-86
2021/03/24 12:05:40;;;;;;;8.13;4.97;;;;;;;14.01;39.68;98807.25;5029455;28;45634;-87
2021/03/24 12:08:17;;;;;;;21.00;5.90;;;;;;;14.01;40.08;98812.59;5030417;28;45480;-84
2021/03/24 12:10:56;;;;;;;11.98;5.22;;;;;;;14.12;42.23;98800.75;5019050;27;46382;-86
2021/03/24 12:13:32;;;;;;;8.55;5.32;;;;;;;14.21;40.77;98801.63;4976127;28;45845;-85
2021/03/24 12:16:11;;;;;;;10.23;5.50;;;;;;;14.24;40.48;98795.94;4978536;28;45530;-86
2021/03/24 12:18:48;;;;;;;9.55;4.57;;;;;;;14.37;41.53;98804.28;4973018;28;45394;-85
2021/03/24 12:21:27;;;;;;;9.88;5.97;;;;;;;14.20;42.72;98800.75;4966895;28;45496;-85
2021/03/24 12:23:54;;;;;;;11.00;5.90;;;;;;;14.40;42.56;98792.41;4980135;28;45454;-85
2021/03/24 12:26:30;;;;;;;9.55;5.78;;;;;;;14.34;40.18;98793.94;4980454;28;45434;-85
2021/03/24 12:29:24;;;;;;;9.20;5.63;;;;;;;14.47;41.62;98784.56;4995450;28;47143;-85
2021/03/24 12:31:54;;;;;;;11.38;5.57;;;;;;;14.58;40.53;98786.88;4979451;28;45450;-86
2021/03/24 12:34:21;;;;;;;8.05;5.68;;;;;;;14.61;40.01;98773.16;4972554;28;45511;-84